Time;durP1;ratioP1;P1;durP2;ratioP2;P2;SDS_P1;SDS_P2;PMS_P1;PMS_P2;Temp;Humidity;BMP_temperature;BMP_pressure;BME280_temperature;BME280_humidity;BME280_pressure;Samples;Min_cycle;Max_cycle;Signal;HPM_P1;HPM_P2
2022/11/10 00:00:18;;;;;;;0.98;0.98;;;10.10;99.90;;;;;;5058590;28;20044;-65
2022/11/10 00:02:44;;;;;;;0.43;0.43;;;10.10;99.90;;;;;;5039399;28;20484;-66
2022/11/10 00:05:11;;;;;;;0.10;0.10;;;10.10;99.90;;;;;;5053188;28;20420;-65
2022/11/10 00:07:36;;;;;;;0.20;0.20;;;10.20;99.90;;;;;;5051154;28;20037;-66
2022/11/10 00:10:03;;;;;;;0.10;0.10;;;10.20;99.90;;;;;;5032592;28;20072;-66
2022/11/10 00:12:30;;;;;;;0.10;0.10;;;10.20;99.90;;;;;;5058397;28;20050;-66
2022/11/10 00:17:40;;;;;;;0.35;0.35;;;10.20;99.90;;;;;;5050877;28;20044;-65
2022/11/10 00:20:07;;;;;;;0.20;0.20;;;10.20;99.90;;;;;;5050553;28;20116;-66
2022/11/10 00:22:33;;;;;;;0.10;0.10;;;10.20;99.90;;;;;;5035713;28;20079;-66
2022/11/10 00:24:59;;;;;;;0.20;0.20;;;10.20;99.90;;;;;;5050591;28;20060;-65
2022/11/10 00:27:24;;;;;;;0.20;0.20;;;10.30;99.90;;;;;;5049986;28;20049;-65
2022/11/10 00:29:50;;;;;;;0.25;0.25;;;10.20;99.90;;;;;;5058193;28;20491;-66
2022/11/10 00:32:16;;;;;;;0.10;0.10;;;10.20;99.90;;;;;;5065927;28;20467;-65
2022/11/10 00:34:42;;;;;;;0.35;0.35;;;10.20;99.90;;;;;;5060012;28;20479;-65
2022/11/10 00:37:07;;;;;;;0.10;0.10;;;10.20;99.90;;;;;;5061086;28;20044;-65
2022/11/10 00:39:33;;;;;;;0.10;0.10;;;10.20;99.90;;;;;;5069279;28;20032;-65
2022/11/10 00:41:59;;;;;;;0.10;0.10;;;10.20;99.90;;;;;;5049818;28;20123;-66
2022/11/10 00:44:24;;;;;;;0.32;0.32;;;10.10;99.90;;;;;;5068788;28;20036;-66
2022/11/10 00:46:50;;;;;;;0.10;0.10;;;10.10;99.90;;;;;;5070530;28;20163;-65
2022/11/10 00:49:15;;;;;;;0.10;0.10;;;10.20;99.90;;;;;;5049457;28;20110;-65
2022/11/10 00:51:41;;;;;;;0.00;0.00;;;10.10;99.90;;;;;;5069591;28;20267;-66
2022/11/10 00:54:07;;;;;;;0.10;0.10;;;10.20;99.90;;;;;;5061935;28;20480;-65
2022/11/10 00:56:33;;;;;;;0.10;0.10;;;10.10;99.90;;;;;;5050499;28;20079;-65
2022/11/10 00:58:59;;;;;;;0.98;0.98;;;10.10;99.90;;;;;;5050027;28;20492;-66
2022/11/10 01:01:25;;;;;;;0.10;0.10;;;10.10;99.90;;;;;;5061887;28;20056;-65
2022/11/10 01:03:52;;;;;;;0.10;0.10;;;10.20;99.90;;;;;;5054792;28;20041;-65
2022/11/10 01:06:19;;;;;;;0.00;0.00;;;10.20;99.90;;;;;;5055858;28;20040;-66
2022/11/10 01:08:45;;;;;;;0.10;0.10;;;10.20;99.90;;;;;;5056917;28;20045;-66
2022/11/10 01:11:20;;;;;;;0.40;0.40;;;10.10;99.90;;;;;;5049826;28;20532;-66
2022/11/10 01:13:45;;;;;;;0.10;0.10;;;10.10;99.90;;;;;;5049771;28;20491;-65
2022/11/10 01:16:15;;;;;;;0.30;0.30;;;10.10;99.90;;;;;;5049245;28;20142;-66
2022/11/10 01:18:41;;;;;;;0.10;0.10;;;10.10;99.90;;;;;;5050742;28;20049;-65
2022/11/10 01:21:07;;;;;;;0.40;0.40;;;10.10;99.90;;;;;;5051170;28;20086;-65
2022/11/10 01:23:34;;;;;;;0.10;0.10;;;10.10;99.90;;;;;;5050921;28;20037;-65
2022/11/10 01:26:02;;;;;;;0.10;0.10;;;10.00;99.90;;;;;;5063124;28;20037;-66
2022/11/10 01:28:28;;;;;;;0.10;0.10;;;10.00;99.90;;;;;;5031191;28;20063;-66
2022/11/10 01:31:01;;;;;;;0.00;0.00;;;10.00;99.90;;;;;;5050326;28;20451;-66
2022/11/10 01:33:27;;;;;;;0.30;0.30;;;10.00;99.90;;;;;;5034677;28;20527;-66
2022/11/10 01:35:53;;;;;;;0.10;0.10;;;10.00;99.90;;;;;;5049809;28;20128;-66
2022/11/10 01:38:19;;;;;;;0.00;0.00;;;10.00;99.90;;;;;;5051010;28;20141;-65
2022/11/10 01:40:45;;;;;;;0.10;0.10;;;10.00;99.90;;;;;;5052899;28;20044;-66
2022/11/10 01:43:11;;;;;;;0.10;0.10;;;10.00;99.90;;;;;;5049054;28;20037;-65
2022/11/10 01:45:48;;;;;;;0.10;0.10;;;10.00;99.90;;;;;;5032764;28;20041;-65
2022/11/10 01:48:22;;;;;;;0.05;0.05;;;10.00;99.90;;;;;;5055451;28;20483;-65
2022/11/10 01:50:48;;;;;;;0.10;0.10;;;10.00;99.90;;;;;;5048921;28;20049;-65
2022/11/10 01:53:21;;;;;;;0.10;0.10;;;10.00;99.90;;;;;;5061536;28;20063;-65
2022/11/10 01:55:48;;;;;;;0.80;0.55;;;10.00;99.90;;;;;;5053281;28;20041;-65
2022/11/10 01:58:16;;;;;;;6.75;0.63;;;10.00;99.90;;;;;;5049962;28;20041;-65
2022/11/10 02:00:42;;;;;;;0.00;0.00;;;10.10;99.90;;;;;;5058552;28;20148;-65
2022/11/10 02:03:22;;;;;;;0.13;0.13;;;10.00;99.90;;;;;;5052792;28;20040;-66
2022/11/10 02:05:49;;;;;;;4.57;1.55;;;10.10;99.90;;;;;;5063312;28;20048;-65
2022/11/10 02:08:17;;;;;;;0.20;0.20;;;10.00;99.90;;;;;;5048491;28;20166;-65
2022/11/10 02:10:43;;;;;;;0.30;0.30;;;10.10;99.90;;;;;;5060507;28;20098;-66
2022/11/10 02:13:10;;;;;;;0.10;0.10;;;10.00;99.90;;;;;;5049625;28;20037;-66
2022/11/10 02:15:36;;;;;;;0.10;0.10;;;10.00;99.90;;;;;;5060278;28;20039;-65
2022/11/10 02:18:02;;;;;;;0.20;0.20;;;10.00;99.90;;;;;;5068794;28;20491;-65
2022/11/10 02:20:28;;;;;;;0.25;0.25;;;10.00;99.90;;;;;;5056724;28;20682;-65
2022/11/10 02:22:54;;;;;;;0.55;0.55;;;10.00;99.90;;;;;;5038783;28;20871;-65
2022/11/10 02:25:21;;;;;;;0.10;0.10;;;10.00;99.90;;;;;;5046388;28;20129;-65
2022/11/10 02:27:47;;;;;;;0.25;0.25;;;10.00;99.90;;;;;;5053487;28;20088;-65
2022/11/10 02:30:14;;;;;;;0.10;0.10;;;10.00;99.90;;;;;;5062340;28;20095;-65
2022/11/10 02:32:39;;;;;;;0.10;0.10;;;10.00;99.90;;;;;;5069025;28;20048;-66
2022/11/10 02:35:06;;;;;;;0.10;0.10;;;10.00;99.90;;;;;;5048021;28;20063;-66
2022/11/10 02:37:31;;;;;;;0.10;0.10;;;10.00;99.90;;;;;;5049057;28;20056;-66
2022/11/10 02:39:57;;;;;;;0.10;0.10;;;9.90;99.90;;;;;;5053452;28;20037;-66
2022/11/10 02:42:22;;;;;;;0.00;0.00;;;9.90;99.90;;;;;;5035433;28;20072;-66
2022/11/10 02:44:48;;;;;;;0.10;0.10;;;10.00;99.90;;;;;;5070442;28;20551;-65
2022/11/10 02:47:14;;;;;;;0.20;0.20;;;9.90;99.90;;;;;;5055423;28;20040;-65
2022/11/10 02:49:40;;;;;;;0.10;0.10;;;9.90;99.90;;;;;;5068697;28;20503;-65
2022/11/10 02:52:05;;;;;;;0.10;0.10;;;9.90;99.90;;;;;;5067180;28;20089;-65
2022/11/10 02:54:31;;;;;;;0.10;0.10;;;9.90;99.90;;;;;;5035340;28;20484;-65
2022/11/10 02:56:57;;;;;;;0.10;0.10;;;9.90;99.90;;;;;;5035126;28;20396;-67
2022/11/10 02:59:22;;;;;;;0.10;0.10;;;9.90;99.90;;;;;;5052669;28;20124;-66
2022/11/10 03:01:48;;;;;;;0.10;0.10;;;9.90;99.90;;;;;;5056751;28;20052;-65
2022/11/10 03:04:13;;;;;;;1.27;0.63;;;10.00;99.90;;;;;;5051449;28;20056;-65
2022/11/10 03:06:39;;;;;;;0.10;0.10;;;10.00;99.90;;;;;;5052582;28;20139;-66
2022/11/10 03:09:05;;;;;;;0.10;0.10;;;10.10;99.90;;;;;;5052287;28;20365;-66
2022/11/10 03:11:31;;;;;;;0.10;0.10;;;10.00;99.90;;;;;;5034739;28;20043;-65
2022/11/10 03:13:57;;;;;;;0.08;0.08;;;10.00;99.90;;;;;;5051969;28;20119;-67
2022/11/10 03:16:22;;;;;;;0.10;0.10;;;10.10;99.90;;;;;;5052458;28;20459;-66
2022/11/10 03:18:48;;;;;;;0.10;0.10;;;10.10;99.90;;;;;;5051692;28;20052;-66
2022/11/10 03:21:13;;;;;;;0.10;0.10;;;10.10;99.90;;;;;;5059101;28;20074;-66
2022/11/10 03:23:39;;;;;;;0.80;0.80;;;10.10;99.90;;;;;;5053872;28;20083;-67
2022/11/10 03:26:05;;;;;;;0.10;0.10;;;10.10;99.90;;;;;;5049877;28;20045;-67
2022/11/10 03:28:32;;;;;;;0.10;0.10;;;10.10;99.90;;;;;;5061501;28;20141;-66
2022/11/10 03:30:58;;;;;;;0.10;0.10;;;10.10;99.90;;;;;;5051931;28;20052;-67
2022/11/10 03:33:24;;;;;;;0.20;0.20;;;10.10;99.90;;;;;;5070496;28;20071;-66
2022/11/10 03:35:50;;;;;;;0.10;0.10;;;10.20;99.90;;;;;;5070580;28;20499;-66
2022/11/10 03:38:15;;;;;;;0.77;0.77;;;10.20;99.90;;;;;;5058007;28;20059;-67
2022/11/10 03:40:41;;;;;;;2.30;0.80;;;10.20;99.90;;;;;;5064390;28;20163;-66
2022/11/10 03:43:07;;;;;;;0.20;0.20;;;10.30;99.90;;;;;;5033324;28;20049;-66
2022/11/10 03:45:33;;;;;;;0.00;0.00;;;10.30;99.90;;;;;;5061378;28;20045;-67
2022/11/10 03:47:59;;;;;;;0.10;0.10;;;10.30;99.90;;;;;;5060250;28;20502;-67
2022/11/10 03:50:24;;;;;;;0.10;0.10;;;10.30;99.90;;;;;;5066639;28;20072;-66
2022/11/10 03:52:50;;;;;;;0.10;0.10;;;10.30;99.90;;;;;;5060998;28;20084;-66
2022/11/10 03:55:17;;;;;;;0.10;0.10;;;10.30;99.90;;;;;;5059905;28;20046;-67
2022/11/10 03:57:43;;;;;;;0.10;0.10;;;10.30;99.90;;;;;;5071998;28;20055;-66
2022/11/10 04:00:11;;;;;;;0.17;0.17;;;10.30;99.90;;;;;;5058614;28;20040;-66
2022/11/10 04:02:36;;;;;;;0.10;0.10;;;10.30;99.90;;;;;;5066450;28;20052;-65
2022/11/10 04:10:35;;;;;;;0.10;0.10;;;10.30;99.90;;;;;;5049645;28;20053;-65
2022/11/10 04:15:45;;;;;;;0.32;0.32;;;10.30;99.90;;;;;;5051191;28;20041;-66
2022/11/10 04:18:25;;;;;;;0.10;0.10;;;10.30;99.90;;;;;;5050157;28;20049;-65
2022/11/10 04:20:53;;;;;;;0.00;0.00;;;10.30;99.90;;;;;;5051558;28;20167;-66
2022/11/10 04:23:27;;;;;;;0.28;0.28;;;10.30;99.90;;;;;;5049713;28;20112;-66
2022/11/10 04:28:49;;;;;;;0.15;0.15;;;10.30;99.90;;;;;;5051582;28;20103;-65
2022/11/10 04:31:17;;;;;;;1.45;0.90;;;10.30;99.90;;;;;;5034447;28;20068;-65
2022/11/10 04:33:43;;;;;;;0.10;0.10;;;10.30;99.90;;;;;;5065952;28;20175;-66
2022/11/10 04:36:12;;;;;;;0.10;0.10;;;10.30;99.90;;;;;;5055068;28;20045;-65
2022/11/10 04:38:38;;;;;;;0.10;0.10;;;10.30;99.90;;;;;;5031649;28;20111;-65
2022/11/10 04:41:04;;;;;;;0.57;0.50;;;10.30;99.90;;;;;;5049993;28;20045;-66
2022/11/10 04:43:30;;;;;;;0.10;0.10;;;10.30;99.90;;;;;;5050886;28;20050;-65
2022/11/10 04:45:56;;;;;;;0.10;0.10;;;10.30;99.90;;;;;;5032733;28;20087;-65
2022/11/10 04:48:23;;;;;;;0.10;0.10;;;10.30;99.90;;;;;;5052375;28;20380;-65
2022/11/10 04:50:48;;;;;;;0.10;0.10;;;10.30;99.90;;;;;;5050833;28;20048;-65
2022/11/10 04:53:14;;;;;;;0.68;0.68;;;10.30;99.90;;;;;;5059472;28;20091;-65
2022/11/10 04:55:42;;;;;;;0.10;0.10;;;10.30;99.90;;;;;;5051009;28;20110;-65
2022/11/10 04:58:08;;;;;;;0.20;0.20;;;10.40;99.90;;;;;;5049393;28;20041;-66
2022/11/10 05:00:34;;;;;;;0.10;0.10;;;10.40;99.90;;;;;;5049156;28;20366;-65
2022/11/10 05:03:01;;;;;;;0.10;0.10;;;10.30;99.90;;;;;;5065506;28;20463;-65
2022/11/10 05:05:27;;;;;;;0.10;0.10;;;10.40;99.90;;;;;;5045201;28;20055;-65
2022/11/10 05:07:53;;;;;;;0.10;0.10;;;10.40;99.90;;;;;;5063999;28;20040;-66
2022/11/10 05:10:19;;;;;;;0.10;0.10;;;10.40;99.90;;;;;;5049625;28;20120;-65
2022/11/10 05:12:45;;;;;;;0.10;0.10;;;10.40;99.90;;;;;;5049877;28;20139;-66
2022/11/10 05:15:11;;;;;;;1.60;0.80;;;10.40;99.90;;;;;;5049425;28;20112;-65
2022/11/10 05:17:37;;;;;;;1.30;0.75;;;10.40;99.90;;;;;;5057072;28;20044;-66
2022/11/10 05:20:03;;;;;;;0.98;0.47;;;10.40;99.90;;;;;;5049996;28;20087;-65
2022/11/10 05:22:29;;;;;;;0.10;0.10;;;10.40;99.90;;;;;;5069097;28;20411;-65
2022/11/10 05:24:55;;;;;;;0.10;0.10;;;10.40;99.90;;;;;;5069778;28;20052;-66
2022/11/10 05:27:20;;;;;;;1.20;0.95;;;10.40;99.90;;;;;;5053259;28;20040;-65
2022/11/10 05:29:46;;;;;;;0.10;0.10;;;10.40;99.90;;;;;;5054862;28;20395;-65
2022/11/10 05:32:11;;;;;;;0.32;0.32;;;10.40;99.90;;;;;;5067194;28;20479;-65
2022/11/10 05:34:37;;;;;;;0.52;0.52;;;10.40;99.90;;;;;;5069541;28;20048;-65
2022/11/10 05:37:02;;;;;;;0.10;0.10;;;10.40;99.90;;;;;;5054650;28;20085;-65
2022/11/10 05:39:28;;;;;;;0.10;0.10;;;10.40;99.90;;;;;;5050201;28;20107;-65
2022/11/10 05:41:54;;;;;;;0.08;0.08;;;10.40;99.90;;;;;;5034629;28;20113;-65
2022/11/10 05:44:19;;;;;;;1.48;0.80;;;10.40;99.90;;;;;;5069444;28;20037;-65
2022/11/10 05:46:45;;;;;;;1.20;1.15;;;10.40;99.90;;;;;;5051219;28;20430;-65
2022/11/10 05:49:11;;;;;;;1.10;1.00;;;10.50;99.90;;;;;;5067532;28;20064;-65
2022/11/10 05:51:36;;;;;;;0.20;0.20;;;10.40;99.90;;;;;;5055447;28;20621;-65
2022/11/10 05:54:02;;;;;;;0.30;0.30;;;10.50;99.90;;;;;;5068910;28;20093;-66
2022/11/10 05:56:28;;;;;;;0.93;0.88;;;10.50;99.90;;;;;;5064798;28;20128;-66
2022/11/10 05:58:53;;;;;;;0.10;0.10;;;10.50;99.90;;;;;;5053337;28;20037;-65
2022/11/10 06:01:19;;;;;;;0.10;0.10;;;10.50;99.90;;;;;;5055900;28;20059;-65
2022/11/10 06:03:44;;;;;;;0.10;0.10;;;10.50;99.90;;;;;;5053592;28;20116;-65
2022/11/10 06:06:10;;;;;;;0.40;0.38;;;10.40;99.90;;;;;;5053582;28;20049;-65
2022/11/10 06:08:36;;;;;;;1.45;1.25;;;10.40;99.90;;;;;;5052887;28;20481;-65
2022/11/10 06:11:01;;;;;;;0.15;0.15;;;10.40;99.90;;;;;;5053402;28;20520;-66
2022/11/10 06:13:28;;;;;;;0.10;0.10;;;10.40;99.90;;;;;;5053636;28;20041;-65
2022/11/10 06:15:53;;;;;;;0.10;0.10;;;10.40;99.90;;;;;;5052973;28;20458;-65
2022/11/10 06:18:19;;;;;;;0.10;0.10;;;10.40;99.90;;;;;;5053150;28;20048;-65
2022/11/10 06:20:46;;;;;;;0.95;0.57;;;10.40;99.90;;;;;;5053425;28;20091;-66
2022/11/10 06:23:12;;;;;;;0.10;0.10;;;10.40;99.90;;;;;;5071160;28;20036;-65
2022/11/10 06:25:39;;;;;;;0.13;0.13;;;10.40;99.90;;;;;;5051367;28;20029;-65
2022/11/10 06:28:06;;;;;;;0.30;0.30;;;10.40;99.90;;;;;;5070471;28;20472;-65
2022/11/10 06:30:33;;;;;;;0.10;0.10;;;10.50;99.90;;;;;;5071923;28;20491;-66
2022/11/10 06:32:59;;;;;;;0.30;0.30;;;10.40;99.90;;;;;;5054059;28;20079;-66
2022/11/10 06:35:26;;;;;;;0.10;0.10;;;10.50;99.90;;;;;;5072859;28;20037;-65
2022/11/10 06:38:06;;;;;;;0.10;0.10;;;10.50;99.90;;;;;;5072798;28;20557;-65
2022/11/10 06:40:32;;;;;;;0.13;0.13;;;10.50;99.90;;;;;;5053221;28;20432;-65
2022/11/10 06:42:58;;;;;;;0.75;0.75;;;10.50;99.90;;;;;;5035146;28;20045;-65
2022/11/10 06:45:27;;;;;;;0.10;0.10;;;10.60;99.90;;;;;;5053102;28;20033;-65
2022/11/10 06:48:19;;;;;;;0.35;0.35;;;10.60;99.90;;;;;;5052983;28;20396;-65
2022/11/10 06:50:44;;;;;;;0.10;0.10;;;10.60;99.90;;;;;;5044354;28;20061;-65
2022/11/10 06:53:12;;;;;;;0.10;0.10;;;10.60;99.90;;;;;;5070666;28;20036;-65
2022/11/10 06:55:38;;;;;;;0.20;0.20;;;10.60;99.90;;;;;;5053297;28;20052;-65
2022/11/10 06:58:04;;;;;;;0.10;0.10;;;10.60;99.90;;;;;;5049405;28;20044;-65
2022/11/10 07:00:30;;;;;;;7.47;2.15;;;10.60;99.90;;;;;;5060869;28;20036;-65
2022/11/10 07:03:00;;;;;;;0.85;0.85;;;10.70;99.90;;;;;;5072828;28;20044;-65
2022/11/10 07:05:25;;;;;;;0.57;0.52;;;10.70;99.90;;;;;;5053072;28;20479;-65
2022/11/10 07:07:51;;;;;;;0.22;0.20;;;10.70;99.90;;;;;;5055115;28;20059;-65
2022/11/10 07:10:17;;;;;;;0.40;0.40;;;10.70;99.90;;;;;;5069422;28;20047;-65
2022/11/10 07:12:42;;;;;;;0.15;0.15;;;10.70;99.90;;;;;;5034031;28;20060;-65
2022/11/10 07:15:09;;;;;;;0.00;0.00;;;10.70;99.90;;;;;;5061164;28;20048;-65
2022/11/10 07:17:41;;;;;;;0.00;0.00;;;10.70;99.90;;;;;;5072727;28;20040;-65
2022/11/10 07:20:07;;;;;;;0.10;0.10;;;10.70;99.90;;;;;;5052255;28;20059;-65
2022/11/10 07:22:33;;;;;;;0.57;0.57;;;10.80;99.90;;;;;;5061337;28;20068;-66
2022/11/10 07:24:58;;;;;;;0.55;0.55;;;10.80;99.90;;;;;;5051573;28;20076;-66
2022/11/10 07:27:24;;;;;;;1.02;0.98;;;10.70;99.90;;;;;;5050429;28;20033;-65
2022/11/10 07:29:50;;;;;;;0.65;0.65;;;10.70;99.90;;;;;;5051776;28;20037;-65
2022/11/10 07:32:15;;;;;;;1.20;0.73;;;10.70;99.90;;;;;;5051454;28;20049;-65
2022/11/10 07:34:41;;;;;;;0.10;0.10;;;10.70;99.90;;;;;;5033020;28;20485;-65
2022/11/10 07:37:08;;;;;;;2.50;0.88;;;10.70;99.90;;;;;;5050873;28;20075;-65
2022/11/10 07:39:33;;;;;;;1.05;0.95;;;10.70;99.90;;;;;;5072253;28;20102;-65
2022/11/10 07:41:59;;;;;;;0.10;0.10;;;10.80;99.90;;;;;;5058736;28;20471;-65
2022/11/10 07:44:26;;;;;;;0.55;0.55;;;10.80;99.90;;;;;;5051926;28;20048;-65
2022/11/10 07:46:52;;;;;;;0.75;0.32;;;10.90;99.90;;;;;;5051913;28;20048;-65
2022/11/10 07:49:17;;;;;;;4.57;1.30;;;11.00;99.90;;;;;;5063117;28;20054;-65
2022/11/10 07:51:43;;;;;;;0.10;0.10;;;11.00;99.90;;;;;;5055981;28;20043;-65
2022/11/10 07:54:09;;;;;;;0.10;0.10;;;11.10;99.90;;;;;;5050531;28;20080;-65
2022/11/10 07:56:35;;;;;;;0.10;0.10;;;11.10;99.90;;;;;;5051488;28;20061;-65
2022/11/10 07:59:00;;;;;;;0.17;0.17;;;11.20;99.90;;;;;;5051139;28;20049;-66
2022/11/10 08:01:26;;;;;;;2.13;1.23;;;11.20;99.90;;;;;;5050754;28;20033;-65
2022/11/10 08:03:52;;;;;;;1.55;1.45;;;11.30;99.90;;;;;;5056771;28;20574;-64
2022/11/10 08:06:17;;;;;;;0.57;0.57;;;11.40;99.90;;;;;;5050055;28;20076;-65
2022/11/10 08:08:45;;;;;;;18.15;1.77;;;11.40;99.90;;;;;;5051064;28;20128;-66
2022/11/10 08:11:11;;;;;;;0.17;0.17;;;11.40;99.90;;;;;;5054490;28;20070;-66
2022/11/10 08:13:38;;;;;;;1.35;1.00;;;11.50;99.90;;;;;;5071164;28;20052;-66
2022/11/10 08:16:04;;;;;;;0.28;0.28;;;11.50;99.90;;;;;;5070245;28;20066;-65
2022/11/10 08:18:30;;;;;;;0.32;0.32;;;11.50;99.90;;;;;;5052125;28;20131;-66
2022/11/10 08:20:59;;;;;;;0.10;0.10;;;11.50;99.90;;;;;;5070935;28;20123;-66
2022/11/10 08:23:27;;;;;;;0.45;0.45;;;11.40;99.90;;;;;;5057251;28;20083;-66
2022/11/10 08:25:53;;;;;;;4.20;2.45;;;11.40;99.90;;;;;;5051643;28;20056;-66
2022/11/10 08:28:19;;;;;;;0.75;0.70;;;11.40;99.90;;;;;;5050461;28;20041;-65
2022/11/10 08:30:46;;;;;;;17.73;0.90;;;11.40;99.90;;;;;;5050684;28;20118;-65
2022/11/10 08:33:13;;;;;;;0.13;0.13;;;11.40;99.90;;;;;;5050873;28;20516;-65
2022/11/10 08:35:42;;;;;;;0.43;0.43;;;11.40;99.90;;;;;;5052415;28;20037;-66
2022/11/10 08:38:10;;;;;;;0.57;0.57;;;11.40;99.90;;;;;;5049478;28;20496;-65
2022/11/10 08:40:36;;;;;;;0.52;0.52;;;11.40;99.90;;;;;;5051369;28;20041;-65
2022/11/10 08:43:02;;;;;;;0.10;0.10;;;11.40;99.90;;;;;;5032065;28;20109;-65
2022/11/10 08:45:28;;;;;;;0.10;0.10;;;11.40;99.90;;;;;;5050657;28;20033;-65
2022/11/10 08:48:04;;;;;;;0.00;0.00;;;11.40;99.90;;;;;;5052042;28;20484;-66
2022/11/10 08:50:30;;;;;;;0.30;0.30;;;11.50;99.90;;;;;;5058963;28;20492;-65
2022/11/10 08:52:56;;;;;;;0.40;0.40;;;11.50;99.90;;;;;;5050610;28;20041;-65
2022/11/10 08:55:22;;;;;;;0.10;0.10;;;11.60;99.90;;;;;;5034724;28;20120;-65
2022/11/10 08:57:48;;;;;;;0.10;0.10;;;11.60;99.90;;;;;;5065935;28;20059;-65
2022/11/10 09:00:15;;;;;;;0.10;0.10;;;11.70;99.90;;;;;;5066922;28;20037;-65
2022/11/10 09:02:41;;;;;;;0.10;0.10;;;11.70;99.90;;;;;;5052770;28;20123;-65
2022/11/10 09:05:07;;;;;;;4.07;2.28;;;11.80;99.90;;;;;;5060738;28;20128;-66
2022/11/10 09:07:45;;;;;;;0.10;0.10;;;11.80;99.90;;;;;;5069551;28;20044;-65
2022/11/10 09:10:12;;;;;;;0.43;0.43;;;11.80;99.90;;;;;;5053005;28;20041;-65
2022/11/10 09:12:38;;;;;;;1.20;1.10;;;11.80;99.90;;;;;;5049459;28;20048;-65
2022/11/10 09:15:04;;;;;;;1.00;0.77;;;11.80;99.90;;;;;;5062366;28;20036;-65
2022/11/10 09:17:31;;;;;;;0.10;0.10;;;11.80;99.90;;;;;;5057723;28;20522;-65
2022/11/10 09:19:56;;;;;;;2.47;1.63;;;11.80;99.90;;;;;;5068880;28;20045;-65
2022/11/10 09:22:22;;;;;;;0.25;0.25;;;11.90;99.90;;;;;;5068840;28;20438;-65
2022/11/10 09:24:48;;;;;;;1.20;0.82;;;11.90;99.90;;;;;;5042231;28;20085;-65
2022/11/10 09:27:13;;;;;;;0.10;0.10;;;12.00;99.90;;;;;;5059994;28;20171;-66
2022/11/10 09:29:39;;;;;;;0.65;0.38;;;12.10;99.90;;;;;;5052004;28;20040;-66
2022/11/10 09:32:05;;;;;;;0.65;0.50;;;12.20;99.90;;;;;;5067244;28;20056;-65
2022/11/10 09:34:30;;;;;;;0.70;0.68;;;12.30;99.90;;;;;;5053325;28;20080;-65
2022/11/10 09:36:56;;;;;;;0.10;0.10;;;12.30;99.90;;;;;;5063031;28;20051;-65
2022/11/10 09:39:22;;;;;;;0.98;0.50;;;12.30;99.90;;;;;;5065465;28;20152;-65
2022/11/10 09:41:48;;;;;;;0.10;0.10;;;12.30;99.90;;;;;;5063198;28;20539;-64
2022/11/10 09:44:22;;;;;;;1.20;1.10;;;12.40;99.90;;;;;;5069627;28;20484;-66
2022/11/10 09:47:00;;;;;;;0.10;0.10;;;12.30;99.90;;;;;;5064332;28;20845;-66
2022/11/10 09:49:34;;;;;;;0.10;0.10;;;12.40;99.90;;;;;;5054857;28;20045;-66
2022/11/10 09:52:01;;;;;;;0.10;0.10;;;12.40;99.90;;;;;;5054117;28;20108;-65
2022/11/10 09:54:35;;;;;;;1.20;1.15;;;12.40;99.90;;;;;;5040279;28;20087;-66
2022/11/10 09:57:03;;;;;;;0.10;0.10;;;12.40;99.90;;;;;;5062772;28;20090;-65
2022/11/10 09:59:31;;;;;;;0.60;0.60;;;12.50;99.90;;;;;;5073921;28;20048;-66
2022/11/10 10:02:03;;;;;;;0.88;0.88;;;12.60;99.90;;;;;;5063564;28;20124;-66
2022/11/10 10:04:37;;;;;;;0.25;0.25;;;12.60;99.90;;;;;;5053509;28;20052;-66
2022/11/10 10:07:21;;;;;;;0.63;0.20;;;12.70;99.90;;;;;;5049893;28;20041;-66
2022/11/10 10:10:09;;;;;;;0.65;0.45;;;12.80;99.90;;;;;;5060826;28;20131;-66
2022/11/10 10:12:52;;;;;;;2.17;1.83;;;12.70;99.90;;;;;;5055875;28;20095;-66
2022/11/10 10:15:59;;;;;;;1.17;1.17;;;12.70;99.90;;;;;;5061220;28;20052;-65
2022/11/10 10:18:55;;;;;;;0.20;0.20;;;12.70;99.90;;;;;;5056803;28;20041;-66
2022/11/10 10:21:25;;;;;;;3.20;2.28;;;12.60;99.90;;;;;;5071954;28;20036;-66
2022/11/10 10:23:51;;;;;;;0.68;0.68;;;12.50;99.90;;;;;;5057173;28;20041;-66
2022/11/10 10:26:22;;;;;;;0.10;0.10;;;12.50;99.90;;;;;;5065860;28;20044;-66
2022/11/10 10:28:49;;;;;;;1.02;1.02;;;12.50;99.90;;;;;;5045808;28;20051;-64
2022/11/10 10:31:25;;;;;;;2.28;0.85;;;12.50;99.90;;;;;;5057009;28;20060;-65
2022/11/10 10:33:52;;;;;;;1.48;1.42;;;12.50;99.90;;;;;;5068461;28;20051;-65
2022/11/10 10:36:23;;;;;;;0.65;0.52;;;12.50;99.90;;;;;;5052305;28;20052;-65
2022/11/10 10:38:53;;;;;;;0.68;0.68;;;12.50;99.90;;;;;;5059618;28;20135;-65
2022/11/10 10:41:22;;;;;;;8.48;1.42;;;12.50;99.90;;;;;;5054315;28;20566;-65
2022/11/10 10:43:50;;;;;;;0.50;0.50;;;12.40;99.90;;;;;;5064419;28;20041;-65
2022/11/10 10:46:15;;;;;;;3.92;3.28;;;12.50;99.90;;;;;;5061539;28;20093;-65
2022/11/10 10:48:41;;;;;;;0.20;0.20;;;12.50;99.90;;;;;;5060513;28;20131;-65
2022/11/10 10:51:07;;;;;;;0.10;0.10;;;12.50;99.90;;;;;;5060575;28;20558;-65
2022/11/10 10:53:44;;;;;;;0.10;0.10;;;12.50;99.90;;;;;;5037250;28;20065;-65
2022/11/10 10:56:20;;;;;;;0.15;0.15;;;12.50;99.90;;;;;;5068265;28;20045;-65
2022/11/10 10:58:55;;;;;;;7.43;1.85;;;12.50;99.90;;;;;;5072357;28;20430;-65
2022/11/10 11:01:30;;;;;;;0.10;0.10;;;12.50;99.90;;;;;;5037359;28;20053;-65
2022/11/10 11:03:58;;;;;;;1.65;1.17;;;12.50;99.90;;;;;;5061124;28;20511;-65
2022/11/10 11:06:27;;;;;;;0.20;0.20;;;12.50;99.90;;;;;;5072593;28;20048;-65
2022/11/10 11:09:18;;;;;;;0.40;0.40;;;12.60;99.90;;;;;;5061322;28;20496;-65
2022/11/10 11:11:57;;;;;;;0.10;0.10;;;12.60;99.90;;;;;;5068323;28;20115;-65
2022/11/10 11:14:25;;;;;;;41.00;1.13;;;12.60;99.90;;;;;;5056041;28;20563;-65
2022/11/10 11:16:52;;;;;;;0.28;0.28;;;12.60;99.90;;;;;;5056412;28;20396;-65
2022/11/10 11:19:21;;;;;;;0.15;0.15;;;12.60;99.90;;;;;;5067204;28;20044;-65
2022/11/10 11:22:14;;;;;;;0.10;0.10;;;12.50;99.90;;;;;;5072052;28;20048;-65
2022/11/10 11:24:50;;;;;;;1.65;1.27;;;12.50;99.90;;;;;;5045094;28;20099;-65
2022/11/10 11:27:32;;;;;;;0.00;0.00;;;12.50;99.90;;;;;;5058718;28;20056;-65
2022/11/10 11:30:13;;;;;;;0.20;0.20;;;12.50;99.90;;;;;;5058948;28;20056;-65
2022/11/10 11:33:11;;;;;;;1.15;0.68;;;12.50;99.90;;;;;;5045436;28;20127;-65
2022/11/10 11:35:49;;;;;;;0.95;0.55;;;12.50;99.90;;;;;;5047008;28;20051;-65
2022/11/10 11:38:43;;;;;;;0.30;0.30;;;12.50;99.90;;;;;;5033486;28;20477;-65
2022/11/10 11:41:23;;;;;;;0.20;0.20;;;12.50;99.90;;;;;;5050482;28;20043;-65
2022/11/10 11:44:21;;;;;;;0.40;0.40;;;12.50;99.90;;;;;;5044494;28;20061;-65
2022/11/10 11:47:15;;;;;;;18.00;1.00;;;12.50;99.90;;;;;;5050907;28;20051;-65
2022/11/10 11:49:55;;;;;;;0.10;0.10;;;12.50;99.90;;;;;;5057569;28;20040;-65
2022/11/10 11:52:35;;;;;;;8.68;2.13;;;12.50;99.90;;;;;;5063689;28;20041;-65
2022/11/10 11:55:22;;;;;;;0.63;0.63;;;12.50;99.90;;;;;;5038406;28;20094;-65
2022/11/10 11:58:02;;;;;;;0.65;0.63;;;12.50;99.90;;;;;;5064117;28;20041;-65
2022/11/10 12:00:34;;;;;;;2.08;0.95;;;12.50;99.90;;;;;;5048568;28;20036;-65
2022/11/10 12:03:30;;;;;;;0.13;0.13;;;12.50;99.90;;;;;;5055766;28;20090;-65
2022/11/10 12:06:30;;;;;;;0.28;0.28;;;12.60;99.90;;;;;;5050286;28;20048;-65
2022/11/10 12:09:22;;;;;;;0.28;0.28;;;12.70;99.90;;;;;;5061266;28;20044;-65
2022/11/10 12:12:23;;;;;;;1.35;1.25;;;12.70;99.90;;;;;;5067354;28;20046;-64
2022/11/10 12:15:27;;;;;;;0.20;0.20;;;12.80;99.90;;;;;;5053426;28;20056;-63
2022/11/10 12:18:20;;;;;;;1.08;0.47;;;12.80;99.90;;;;;;5055034;28;20403;-64
2022/11/10 12:21:20;;;;;;;0.43;0.43;;;12.80;99.90;;;;;;5059022;28;20049;-64
2022/11/10 12:24:32;;;;;;;0.20;0.20;;;12.80;99.90;;;;;;5046271;28;20048;-65
2022/11/10 12:27:06;;;;;;;0.10;0.10;;;12.80;99.90;;;;;;5069803;28;20495;-65
2022/11/10 12:29:42;;;;;;;0.10;0.10;;;12.80;99.90;;;;;;5063872;28;20051;-65
2022/11/10 12:32:41;;;;;;;0.10;0.10;;;12.80;99.90;;;;;;5062925;28;20403;-65
2022/11/10 12:35:21;;;;;;;0.47;0.47;;;12.80;99.90;;;;;;5050479;28;20037;-65
2022/11/10 12:37:57;;;;;;;1.05;1.05;;;12.80;99.90;;;;;;5069911;28;20122;-65
2022/11/10 12:40:37;;;;;;;1.17;1.00;;;12.80;99.90;;;;;;5055853;28;20036;-64
2022/11/10 12:43:11;;;;;;;0.65;0.20;;;12.80;99.90;;;;;;5056186;28;20118;-64
2022/11/10 12:45:47;;;;;;;0.80;0.43;;;12.90;99.90;;;;;;5055260;28;20385;-65
2022/11/10 12:48:14;;;;;;;0.52;0.52;;;12.90;99.90;;;;;;5061099;28;20047;-65
2022/11/10 12:51:00;;;;;;;0.10;0.10;;;12.90;99.90;;;;;;5056957;28;20422;-64
2022/11/10 12:53:34;;;;;;;0.57;0.57;;;12.90;99.90;;;;;;5065953;28;20438;-64
2022/11/10 12:56:06;;;;;;;3.33;2.40;;;12.90;99.90;;;;;;5070385;28;20075;-64
2022/11/10 12:58:32;;;;;;;1.27;0.47;;;12.90;99.90;;;;;;5065994;28;20512;-64
2022/11/10 13:01:02;;;;;;;0.13;0.13;;;12.80;99.90;;;;;;5051909;28;20076;-64
2022/11/10 13:03:28;;;;;;;2.15;1.95;;;12.90;99.90;;;;;;5062160;28;20856;-64
2022/11/10 13:05:56;;;;;;;2.88;0.40;;;12.80;99.90;;;;;;5058634;28;20044;-65
2022/11/10 13:08:35;;;;;;;0.10;0.10;;;12.80;99.90;;;;;;5049211;28;20431;-64
2022/11/10 13:11:10;;;;;;;1.20;1.10;;;12.90;99.90;;;;;;5066920;28;20040;-64
2022/11/10 13:13:59;;;;;;;0.60;0.60;;;12.90;99.90;;;;;;5051049;28;20080;-64